Wolfville, Canada
Current Conditions -  °F | °C
As of 2:00 PM on Friday 28 Nov 2014 (Local Time) from CYZX Reporting Station
Overcast Overcast  
Wind Chill: 25°   Ceiling: 3000
Heat Index: 30°   Visibility: 15mi
Dew Point: 21°   Wind: 5mph
Humidity: 69%   Direction: 80°E
Pressure: 29.93"   Gusts: NA
Location:  45.08°N, 64.37°W
Report Text: CYZX 281800Z 08004KT 15SM OVC030 M01/M06 A2993 RMK SC8 WNDY HILL 12005KT SLP138
Loading
Personal Weather Stations






























Interactive Weather Map New forecast layout! Learn more

10-Day Weather Forecast

Advertisements
Track Severe Weather on mobile